createdAt,value
2022-11-18T00:00:05.496Z,87.27
2022-11-18T00:02:57.701Z,87.39
2022-11-18T00:05:29.934Z,87.32
2022-11-18T00:08:02.069Z,86.99
2022-11-18T00:10:34.432Z,86.97
2022-11-18T00:13:24.443Z,86.95
2022-11-18T00:16:04.078Z,86.82
2022-11-18T00:18:37.179Z,86.91
2022-11-18T00:21:11.569Z,86.91
2022-11-18T00:23:43.967Z,87.03
2022-11-18T00:26:19.714Z,87.06
2022-11-18T00:28:51.828Z,86.96
2022-11-18T00:31:24.008Z,87.04
2022-11-18T00:33:56.717Z,87.00
2022-11-18T00:36:30.008Z,87.14
2022-11-18T00:39:02.152Z,87.06
2022-11-18T00:41:48.656Z,87.08
2022-11-18T00:44:20.873Z,87.15
2022-11-18T00:46:53.092Z,87.00
2022-11-18T00:49:25.382Z,87.19
2022-11-18T00:51:57.558Z,86.92
2022-11-18T00:54:29.710Z,86.97
2022-11-18T00:57:02.022Z,87.07
2022-11-18T00:59:37.141Z,87.09
2022-11-18T01:02:09.680Z,86.99
2022-11-18T01:04:42.028Z,87.06
2022-11-18T01:07:14.398Z,87.01
2022-11-18T01:09:46.602Z,86.89
2022-11-18T01:12:36.642Z,86.87
2022-11-18T01:15:13.652Z,86.90
2022-11-18T01:17:45.800Z,86.74
2022-11-18T01:20:18.817Z,86.67
2022-11-18T01:22:50.967Z,86.89
2022-11-18T01:25:23.410Z,86.77
2022-11-18T01:27:55.687Z,86.76
2022-11-18T01:30:27.927Z,86.66
2022-11-18T01:33:01.056Z,86.52
2022-11-18T01:35:35.274Z,86.64
2022-11-18T01:38:11.137Z,86.52
2022-11-18T01:40:43.748Z,86.43
2022-11-18T01:43:19.704Z,86.50
2022-11-18T01:45:54.310Z,86.67
2022-11-18T01:48:29.900Z,86.65
2022-11-18T01:51:07.139Z,86.54
2022-11-18T01:53:42.450Z,86.56
2022-11-18T01:56:19.122Z,86.62
2022-11-18T01:58:57.764Z,86.73
2022-11-18T02:01:30.163Z,86.66
2022-11-18T02:04:02.508Z,86.58
2022-11-18T02:06:35.249Z,86.60
2022-11-18T02:09:08.621Z,86.63
2022-11-18T02:11:54.524Z,86.69
2022-11-18T02:14:29.297Z,86.54
2022-11-18T02:17:13.217Z,86.62
2022-11-18T02:20:17.937Z,86.51
2022-11-18T02:23:14.801Z,86.56
2022-11-18T02:26:07.594Z,86.65
2022-11-18T02:28:50.779Z,86.59
2022-11-18T02:31:29.213Z,86.52
2022-11-18T02:34:08.994Z,86.54
2022-11-18T02:36:48.018Z,86.68
2022-11-18T02:39:29.053Z,86.59
2022-11-18T02:42:04.189Z,86.62
2022-11-18T02:44:39.418Z,86.49
2022-11-18T02:47:15.431Z,86.56
2022-11-18T02:49:53.079Z,86.52
2022-11-18T02:52:28.029Z,86.40
2022-11-18T02:55:01.949Z,86.53
2022-11-18T02:57:36.392Z,86.81
2022-11-18T03:00:13.015Z,86.81
2022-11-18T03:02:48.174Z,86.75
2022-11-18T03:05:33.980Z,86.51
2022-11-18T03:08:12.402Z,86.83
2022-11-18T03:10:51.075Z,86.54
2022-11-18T03:13:30.256Z,86.76
2022-11-18T03:16:06.036Z,86.79
2022-11-18T03:18:46.990Z,86.90
2022-11-18T03:21:24.449Z,86.90
2022-11-18T03:24:05.815Z,86.88
2022-11-18T03:26:41.061Z,86.83
2022-11-18T03:29:19.739Z,86.95
2022-11-18T03:31:55.695Z,86.98
2022-11-18T03:34:31.791Z,86.86
2022-11-18T03:37:10.389Z,87.14
2022-11-18T03:39:49.576Z,87.03
2022-11-18T03:42:26.532Z,87.06
2022-11-18T03:45:03.528Z,87.16
2022-11-18T03:47:41.614Z,87.07
2022-11-18T03:50:18.566Z,87.08
2022-11-18T03:52:54.845Z,87.14
2022-11-18T03:55:33.733Z,87.43
2022-11-18T03:58:11.498Z,87.37
2022-11-18T04:00:47.313Z,87.39
2022-11-18T04:03:20.739Z,87.42
2022-11-18T04:05:57.754Z,87.42
2022-11-18T04:08:34.911Z,87.14
2022-11-18T04:11:35.253Z,87.28
2022-11-18T04:14:10.563Z,87.34
2022-11-18T04:16:45.107Z,87.52
2022-11-18T04:19:17.301Z,87.40
2022-11-18T04:21:50.623Z,87.41
2022-11-18T04:24:22.772Z,87.20
2022-11-18T04:26:54.863Z,87.42
2022-11-18T04:29:27.051Z,87.24
2022-11-18T04:31:59.591Z,87.24
2022-11-18T04:34:34.837Z,87.34
2022-11-18T04:37:07.200Z,87.32
2022-11-18T04:39:39.280Z,87.26
2022-11-18T04:42:14.262Z,87.29
2022-11-18T04:44:46.455Z,87.41
2022-11-18T04:47:18.535Z,87.50
2022-11-18T04:49:50.902Z,87.67
2022-11-18T04:52:23.040Z,87.58
2022-11-18T04:54:55.123Z,87.56
2022-11-18T04:57:27.264Z,87.47
2022-11-18T04:59:59.473Z,87.59
2022-11-18T05:02:31.609Z,87.48
2022-11-18T05:05:03.667Z,87.36
2022-11-18T05:07:35.747Z,87.14
2022-11-18T05:10:09.483Z,87.30
2022-11-18T05:12:51.008Z,87.45
2022-11-18T05:15:25.010Z,87.34
2022-11-18T05:17:57.488Z,87.40
2022-11-18T05:20:29.659Z,87.33
2022-11-18T05:23:02.116Z,87.17
2022-11-18T05:25:34.215Z,87.30
2022-11-18T05:28:07.758Z,87.46
2022-11-18T05:30:40.425Z,87.31
2022-11-18T05:33:12.573Z,87.31
2022-11-18T05:35:44.853Z,87.35
2022-11-18T05:38:16.994Z,87.65
2022-11-18T05:40:49.129Z,87.44
2022-11-18T05:43:21.555Z,87.40
2022-11-18T05:45:54.778Z,87.37
2022-11-18T05:48:27.359Z,87.42
2022-11-18T05:50:59.489Z,87.40
2022-11-18T05:53:31.608Z,87.51
2022-11-18T05:56:10.623Z,87.19
2022-11-18T05:58:42.829Z,87.41
2022-11-18T06:01:19.622Z,87.38
2022-11-18T06:03:52.461Z,87.34
2022-11-18T06:06:25.952Z,87.20
2022-11-18T06:09:03.688Z,87.15
2022-11-18T06:11:41.587Z,87.17
2022-11-18T06:14:17.914Z,87.24
2022-11-18T06:16:53.584Z,87.23
2022-11-18T06:19:29.353Z,87.20
2022-11-18T06:22:02.242Z,87.31
2022-11-18T06:24:34.716Z,87.20
2022-11-18T06:27:07.355Z,87.11
2022-11-18T06:29:39.639Z,86.99
2022-11-18T06:32:12.246Z,86.94
2022-11-18T06:34:44.508Z,86.97
2022-11-18T06:37:17.929Z,86.90
2022-11-18T06:39:50.579Z,86.64
2022-11-18T06:42:36.614Z,86.63
2022-11-18T06:45:10.435Z,86.58
2022-11-18T06:47:42.868Z,86.67
2022-11-18T06:50:15.277Z,86.75
2022-11-18T06:52:47.737Z,86.83
2022-11-18T06:55:19.844Z,86.71
2022-11-18T06:57:51.991Z,86.59
2022-11-18T07:00:24.805Z,86.79
2022-11-18T07:02:56.954Z,86.63
2022-11-18T07:05:28.990Z,86.75
2022-11-18T07:08:01.069Z,86.60
2022-11-18T07:10:33.161Z,86.39
2022-11-18T07:13:05.697Z,86.27
2022-11-18T07:15:37.864Z,86.18
2022-11-18T07:18:09.959Z,86.20
2022-11-18T07:20:42.502Z,85.89
2022-11-18T07:23:14.556Z,85.79
2022-11-18T07:25:46.641Z,85.73
2022-11-18T07:28:18.668Z,85.81
2022-11-18T07:30:50.736Z,85.93
2022-11-18T07:33:22.769Z,85.71
2022-11-18T07:35:54.950Z,85.65
2022-11-18T07:38:27.314Z,85.67
2022-11-18T07:41:06.500Z,85.64
2022-11-18T07:43:40.272Z,85.68
2022-11-18T07:46:14.331Z,85.59
2022-11-18T07:48:48.790Z,85.44
2022-11-18T07:51:23.727Z,85.38
2022-11-18T07:53:55.901Z,85.28
2022-11-18T07:56:28.361Z,85.44
2022-11-18T07:59:00.656Z,85.27
2022-11-18T08:01:33.410Z,85.21
2022-11-18T08:04:09.765Z,85.04
2022-11-18T08:06:42.403Z,84.92
2022-11-18T08:09:18.282Z,85.00
2022-11-18T08:11:50.952Z,84.89
2022-11-18T08:14:24.367Z,84.76
2022-11-18T08:16:59.428Z,84.83
2022-11-18T08:19:31.539Z,84.79
2022-11-18T08:22:03.584Z,85.02
2022-11-18T08:24:35.739Z,84.73
2022-11-18T08:27:08.213Z,84.76
2022-11-18T08:29:40.858Z,84.85
2022-11-18T08:32:13.090Z,84.61
2022-11-18T08:34:45.779Z,84.37
2022-11-18T08:37:18.214Z,84.10
2022-11-18T08:39:50.731Z,84.07
2022-11-18T08:42:24.482Z,83.92
2022-11-18T08:45:00.353Z,83.84
2022-11-18T08:47:32.628Z,83.90
2022-11-18T08:50:05.165Z,84.24
2022-11-18T08:52:37.611Z,84.23
2022-11-18T08:55:10.564Z,84.13
2022-11-18T08:57:42.899Z,84.04
2022-11-18T09:00:17.286Z,83.99
2022-11-18T09:02:49.538Z,83.76
2022-11-18T09:05:21.810Z,83.75
2022-11-18T09:07:54.085Z,83.69
2022-11-18T09:10:26.276Z,83.61
2022-11-18T09:17:07.787Z,83.68
2022-11-18T09:19:49.242Z,83.67
2022-11-18T09:23:11.322Z,83.71
2022-11-18T09:29:59.044Z,83.22
2022-11-18T09:32:31.378Z,83.27
2022-11-18T09:35:17.408Z,83.06
2022-11-18T09:37:52.567Z,83.04
2022-11-18T09:41:31.180Z,82.90
2022-11-18T09:54:03.002Z,82.78
2022-11-18T09:56:35.220Z,82.55
2022-11-18T09:59:08.060Z,82.55
2022-11-18T10:19:58.084Z,82.09
2022-11-18T10:31:31.812Z,82.13
2022-11-18T10:34:04.713Z,81.78
2022-11-18T10:36:44.013Z,81.93
2022-11-18T10:39:17.941Z,81.75
2022-11-18T10:47:01.211Z,81.46
2022-11-18T10:54:27.791Z,81.56
2022-11-18T10:58:19.368Z,81.36
2022-11-18T11:00:52.362Z,81.66
2022-11-18T11:08:48.268Z,81.17
2022-11-18T11:15:39.614Z,81.20
2022-11-18T11:22:59.010Z,80.80
2022-11-18T11:30:28.267Z,80.89
2022-11-18T11:34:23.103Z,80.65
2022-11-18T11:45:03.272Z,80.46
2022-11-18T12:00:17.837Z,80.40
2022-11-18T12:03:35.204Z,80.65
2022-11-18T12:06:09.151Z,80.64
2022-11-18T12:12:55.328Z,80.10
2022-11-18T12:15:47.549Z,80.15
2022-11-18T12:18:26.200Z,80.18
2022-11-18T12:20:58.597Z,80.09
2022-11-18T12:23:31.630Z,79.90
2022-11-18T12:26:07.565Z,79.83
2022-11-18T12:28:42.352Z,79.88
2022-11-18T12:31:35.979Z,79.81
2022-11-18T12:34:21.637Z,79.95
2022-11-18T12:36:55.414Z,79.93
2022-11-18T12:40:01.241Z,80.13
2022-11-18T12:43:03.101Z,79.90
2022-11-18T12:45:52.585Z,79.51
2022-11-18T12:48:40.195Z,79.55
2022-11-18T12:51:48.972Z,79.40
2022-11-18T12:54:32.157Z,79.70
2022-11-18T12:57:14.854Z,79.47
2022-11-18T12:59:47.131Z,79.58
2022-11-18T13:02:27.689Z,79.72
2022-11-18T13:05:11.444Z,79.65
2022-11-18T13:08:04.687Z,79.58
2022-11-18T13:10:40.484Z,79.85
2022-11-18T13:13:25.972Z,79.78
2022-11-18T13:16:17.564Z,79.40
2022-11-18T13:18:54.215Z,79.52
2022-11-18T13:21:46.291Z,79.29
2022-11-18T13:24:20.660Z,79.43
2022-11-18T13:26:58.537Z,79.27
2022-11-18T13:29:58.736Z,79.41
2022-11-18T13:32:31.568Z,79.54
2022-11-18T13:35:13.008Z,79.36
2022-11-18T13:37:54.324Z,79.37
2022-11-18T13:40:29.221Z,79.53
2022-11-18T13:43:01.375Z,79.67
2022-11-18T13:45:35.406Z,79.48
2022-11-18T13:48:16.126Z,79.44
2022-11-18T13:50:55.184Z,79.27
2022-11-18T13:53:32.252Z,79.37
2022-11-18T13:56:07.746Z,79.45
2022-11-18T14:01:36.667Z,79.05
2022-11-18T14:04:17.459Z,79.05
2022-11-18T14:06:49.903Z,79.12
2022-11-18T14:09:28.190Z,79.19
2022-11-18T14:12:07.491Z,79.20
2022-11-18T14:14:41.757Z,79.29
2022-11-18T14:17:22.757Z,79.40
2022-11-18T14:19:56.935Z,79.41
2022-11-18T14:22:30.951Z,79.46
2022-11-18T14:25:06.100Z,79.60
2022-11-18T14:27:40.711Z,79.50
2022-11-18T14:30:34.980Z,79.23
2022-11-18T14:46:38.682Z,79.30
2022-11-18T14:49:59.826Z,79.40
2022-11-18T14:52:32.003Z,79.15
2022-11-18T14:55:04.128Z,78.93
2022-11-18T14:57:42.906Z,79.01
2022-11-18T15:00:48.945Z,79.06
2022-11-18T15:03:21.226Z,78.96
2022-11-18T15:05:54.569Z,79.00
2022-11-18T15:08:26.872Z,78.83
2022-11-18T15:16:19.618Z,78.79
2022-11-18T15:23:49.057Z,78.41
2022-11-18T15:35:29.147Z,78.31
2022-11-18T15:38:08.076Z,78.07
2022-11-18T15:41:07.024Z,78.03
2022-11-18T15:44:11.365Z,78.32
2022-11-18T15:46:50.515Z,78.10
2022-11-18T15:57:43.829Z,77.70
2022-11-18T16:01:12.683Z,77.53
2022-11-18T16:03:44.940Z,77.57
2022-11-18T16:06:17.171Z,77.39
2022-11-18T16:09:00.010Z,77.62
2022-11-18T16:16:23.537Z,77.20
2022-11-18T16:18:58.318Z,77.28
2022-11-18T16:21:48.807Z,76.78
2022-11-18T16:24:23.600Z,76.96
2022-11-18T16:27:44.971Z,77.06
2022-11-18T16:35:15.624Z,76.95
2022-11-18T16:37:54.042Z,76.96
2022-11-18T16:40:28.605Z,76.99
2022-11-18T16:43:52.762Z,76.84
2022-11-18T16:47:35.733Z,76.72
2022-11-18T16:50:08.927Z,76.76
2022-11-18T17:01:31.661Z,76.74
2022-11-18T17:04:06.258Z,76.71
2022-11-18T17:07:39.987Z,76.50
2022-11-18T17:10:21.447Z,75.93
2022-11-18T17:23:10.426Z,76.10
2022-11-18T17:26:23.773Z,75.97
2022-11-18T17:28:57.996Z,75.67
2022-11-18T17:32:35.548Z,75.82
2022-11-18T17:35:14.308Z,76.10
2022-11-18T17:37:46.836Z,75.80
2022-11-18T17:40:25.093Z,75.86
2022-11-18T17:42:57.200Z,75.74
2022-11-18T17:49:37.289Z,75.67
2022-11-18T17:52:09.574Z,75.61
2022-11-18T17:58:45.044Z,75.60
2022-11-18T18:07:22.590Z,75.44
2022-11-18T18:09:56.294Z,75.34
2022-11-18T18:16:55.266Z,75.35
2022-11-18T18:19:27.528Z,75.14
2022-11-18T18:26:59.269Z,75.17
2022-11-18T18:34:30.750Z,75.15
2022-11-18T18:37:09.120Z,75.05
2022-11-18T18:39:41.307Z,75.07
2022-11-18T18:42:14.326Z,75.19
2022-11-18T18:48:54.477Z,75.36
2022-11-18T18:51:27.091Z,75.27
2022-11-18T18:54:06.970Z,75.32
2022-11-18T19:01:34.780Z,75.35
2022-11-18T19:12:29.715Z,75.44
2022-11-18T19:16:23.909Z,75.53
2022-11-18T19:19:02.633Z,75.55
2022-11-18T19:21:35.487Z,75.54
2022-11-18T19:27:26.559Z,75.66
2022-11-18T19:29:59.267Z,75.50
2022-11-18T19:32:31.856Z,75.50
2022-11-18T19:44:01.714Z,75.82
2022-11-18T19:47:11.489Z,75.67
2022-11-18T19:49:43.658Z,75.46
2022-11-18T19:52:15.922Z,75.56
2022-11-18T19:59:20.493Z,75.73
2022-11-18T20:02:22.226Z,75.70
2022-11-18T20:08:59.264Z,75.56
2022-11-18T20:20:52.526Z,75.77
2022-11-18T20:23:24.956Z,75.74
2022-11-18T20:26:45.136Z,75.67
2022-11-18T20:30:00.200Z,75.48
2022-11-18T20:41:30.681Z,75.49
2022-11-18T20:44:11.700Z,75.51
2022-11-18T20:56:45.057Z,75.47
2022-11-18T20:59:17.814Z,75.53
2022-11-18T21:01:50.190Z,75.67
2022-11-18T21:04:29.339Z,75.62
2022-11-18T21:10:46.258Z,75.50
2022-11-18T21:22:13.036Z,75.48
2022-11-18T21:24:47.435Z,75.41
2022-11-18T21:32:11.016Z,75.64
2022-11-18T21:38:51.237Z,75.69
2022-11-18T21:41:31.200Z,75.68
2022-11-18T21:44:06.345Z,75.75
2022-11-18T21:47:29.255Z,75.75
2022-11-18T21:50:10.063Z,75.86
2022-11-18T21:52:42.430Z,75.73
2022-11-18T21:59:38.881Z,75.94
2022-11-18T22:03:19.119Z,75.95
2022-11-18T22:05:59.047Z,76.04
2022-11-18T22:08:50.058Z,76.04
2022-11-18T22:11:28.813Z,76.33
2022-11-18T22:14:01.117Z,76.32
2022-11-18T22:25:25.509Z,76.62
2022-11-18T22:28:02.684Z,76.68
2022-11-18T22:30:34.809Z,76.74
2022-11-18T22:33:07.194Z,76.91
2022-11-18T22:40:38.602Z,76.97
2022-11-18T22:43:12.112Z,77.16
2022-11-18T22:45:50.294Z,77.12
2022-11-18T22:48:22.467Z,77.28
2022-11-18T23:04:24.219Z,77.54
2022-11-18T23:07:48.393Z,77.48
2022-11-18T23:10:20.817Z,77.55
2022-11-18T23:13:17.988Z,77.66
2022-11-18T23:19:59.508Z,77.96
2022-11-18T23:22:31.709Z,77.90
2022-11-18T23:25:03.808Z,77.87
2022-11-18T23:27:35.985Z,77.94
2022-11-18T23:30:15.647Z,77.76
2022-11-18T23:32:47.745Z,77.77
2022-11-18T23:35:26.599Z,77.85
2022-11-18T23:37:58.877Z,77.86
2022-11-18T23:44:52.917Z,78.12
2022-11-18T23:47:25.091Z,78.22
2022-11-18T23:59:37.875Z,78.15
